createdAt,value
2023-01-29T00:02:00.682Z,1.08
2023-01-29T00:04:29.997Z,0.90
2023-01-29T00:06:58.023Z,0.80
2023-01-29T00:09:26.009Z,0.80
2023-01-29T00:11:54.057Z,0.90
2023-01-29T00:14:22.873Z,0.65
2023-01-29T00:16:50.899Z,1.00
2023-01-29T00:19:19.574Z,0.98
2023-01-29T00:21:48.984Z,1.10
2023-01-29T00:24:16.946Z,0.70
2023-01-29T00:26:44.995Z,0.85
2023-01-29T00:29:13.319Z,1.00
2023-01-29T00:31:41.463Z,1.20
2023-01-29T00:34:09.451Z,0.90
2023-01-29T00:36:38.031Z,0.60
2023-01-29T00:39:10.795Z,1.02
2023-01-29T00:41:57.647Z,0.77
2023-01-29T00:44:42.770Z,0.82
2023-01-29T00:47:30.908Z,0.82
2023-01-29T00:49:59.157Z,0.80
2023-01-29T00:52:29.363Z,0.80
2023-01-29T00:55:00.513Z,0.68
2023-01-29T00:57:30.998Z,1.00
2023-01-29T00:59:59.064Z,0.95
2023-01-29T01:02:44.711Z,0.70
2023-01-29T01:05:17.997Z,0.70
2023-01-29T01:07:47.658Z,0.88
2023-01-29T01:10:22.243Z,1.25
2023-01-29T01:12:53.551Z,0.60
2023-01-29T01:15:22.259Z,0.90
2023-01-29T01:17:53.764Z,0.60
2023-01-29T01:20:22.246Z,1.05
2023-01-29T01:22:50.776Z,0.70
2023-01-29T01:25:20.103Z,1.10
2023-01-29T01:27:48.485Z,1.15
2023-01-29T01:30:18.019Z,0.98
2023-01-29T01:32:46.554Z,0.80
2023-01-29T01:35:14.876Z,1.05
2023-01-29T01:37:43.182Z,0.88
2023-01-29T01:40:18.093Z,0.80
2023-01-29T01:42:49.871Z,0.95
2023-01-29T01:45:24.919Z,1.10
2023-01-29T01:47:58.083Z,1.20
2023-01-29T01:50:30.606Z,1.10
2023-01-29T01:53:02.395Z,1.02
2023-01-29T01:55:34.313Z,0.93
2023-01-29T01:58:08.506Z,0.80
2023-01-29T02:00:36.656Z,0.68
2023-01-29T02:03:23.477Z,0.90
2023-01-29T02:06:11.558Z,0.80
2023-01-29T02:09:05.858Z,1.30
2023-01-29T02:11:37.311Z,1.00
2023-01-29T02:14:07.030Z,1.25
2023-01-29T02:16:36.862Z,0.93
2023-01-29T02:19:09.403Z,1.00
2023-01-29T02:21:58.557Z,0.88
2023-01-29T02:24:54.483Z,0.85
2023-01-29T02:27:32.520Z,1.00
2023-01-29T02:30:07.998Z,1.02
2023-01-29T02:32:54.714Z,1.08
2023-01-29T02:35:32.007Z,0.90
2023-01-29T02:38:11.924Z,1.00
2023-01-29T02:40:45.157Z,1.00
2023-01-29T02:43:28.748Z,1.00
2023-01-29T02:46:05.044Z,0.90
2023-01-29T02:48:43.319Z,1.27
2023-01-29T02:51:19.964Z,1.10
2023-01-29T02:53:58.739Z,1.02
2023-01-29T02:56:31.361Z,1.00
2023-01-29T02:59:06.838Z,1.13
2023-01-29T03:01:40.738Z,1.00
2023-01-29T03:04:13.639Z,1.23
2023-01-29T03:06:46.236Z,0.90
2023-01-29T03:09:18.906Z,0.80
2023-01-29T03:11:53.230Z,0.93
2023-01-29T03:14:47.595Z,1.33
2023-01-29T03:17:19.621Z,1.40
2023-01-29T03:19:48.317Z,1.00
2023-01-29T03:22:23.627Z,1.02
2023-01-29T03:25:13.417Z,1.10
2023-01-29T03:28:04.402Z,0.73
2023-01-29T03:31:01.598Z,0.73
2023-01-29T03:33:46.696Z,1.13
2023-01-29T03:36:19.625Z,0.70
2023-01-29T03:38:47.862Z,1.20
2023-01-29T03:41:24.268Z,1.00
2023-01-29T03:44:01.614Z,0.95
2023-01-29T03:46:35.578Z,0.57
2023-01-29T03:49:13.461Z,0.93
2023-01-29T03:51:51.295Z,1.00
2023-01-29T03:54:27.381Z,0.95
2023-01-29T03:57:03.711Z,0.80
2023-01-29T03:59:40.772Z,1.30
2023-01-29T04:02:28.085Z,0.80
2023-01-29T04:05:10.981Z,0.90
2023-01-29T04:07:51.972Z,0.90
2023-01-29T04:10:23.911Z,0.70
2023-01-29T04:12:56.541Z,0.73
2023-01-29T04:15:27.137Z,1.15
2023-01-29T04:17:57.419Z,0.82
2023-01-29T04:20:37.040Z,0.80
2023-01-29T04:23:07.513Z,0.75
2023-01-29T04:25:44.518Z,0.90
2023-01-29T04:28:19.663Z,1.05
2023-01-29T04:30:55.391Z,1.30
2023-01-29T04:33:33.899Z,0.90
2023-01-29T04:36:18.887Z,0.98
2023-01-29T04:38:57.519Z,1.30
2023-01-29T04:41:33.175Z,1.02
2023-01-29T04:44:09.730Z,0.90
2023-01-29T04:46:48.222Z,1.00
2023-01-29T04:49:26.322Z,0.68
2023-01-29T04:52:02.804Z,0.80
2023-01-29T04:54:42.362Z,1.10
2023-01-29T04:57:17.467Z,0.90
2023-01-29T04:59:49.875Z,1.10
2023-01-29T05:02:19.534Z,1.00
2023-01-29T05:04:49.146Z,1.10
2023-01-29T05:07:19.555Z,1.10
2023-01-29T05:09:49.478Z,0.80
2023-01-29T05:12:18.979Z,1.20
2023-01-29T05:14:48.571Z,0.90
2023-01-29T05:17:19.551Z,0.90
2023-01-29T05:19:48.339Z,0.75
2023-01-29T05:22:22.647Z,0.90
2023-01-29T05:24:50.790Z,1.15
2023-01-29T05:27:38.904Z,1.17
2023-01-29T05:30:08.198Z,0.90
2023-01-29T05:32:36.143Z,0.90
2023-01-29T05:35:04.298Z,1.13
2023-01-29T05:37:33.698Z,0.80
2023-01-29T05:40:01.698Z,0.88
2023-01-29T05:42:29.811Z,0.98
2023-01-29T05:44:57.890Z,0.80
2023-01-29T05:47:25.895Z,1.00
2023-01-29T05:49:53.911Z,1.27
2023-01-29T05:52:21.849Z,1.00
2023-01-29T05:54:51.130Z,1.10
2023-01-29T05:57:19.137Z,1.00
2023-01-29T05:59:47.157Z,0.60
2023-01-29T06:02:15.087Z,1.00
2023-01-29T06:04:43.035Z,0.70
2023-01-29T06:07:11.047Z,0.80
2023-01-29T06:09:39.141Z,1.00
2023-01-29T06:12:08.711Z,1.20
2023-01-29T06:14:36.784Z,0.88
2023-01-29T06:17:04.946Z,1.00
2023-01-29T06:19:32.927Z,0.80
2023-01-29T06:22:00.872Z,0.90
2023-01-29T06:24:28.928Z,1.10
2023-01-29T06:26:56.911Z,1.20
2023-01-29T06:29:26.383Z,0.80
2023-01-29T06:31:54.498Z,0.95
2023-01-29T06:34:22.665Z,0.80
2023-01-29T06:36:50.690Z,1.20
2023-01-29T06:39:18.671Z,0.70
2023-01-29T06:41:46.747Z,0.95
2023-01-29T06:44:14.791Z,0.93
2023-01-29T06:46:44.081Z,1.00
2023-01-29T06:49:12.029Z,0.70
2023-01-29T06:51:40.070Z,0.88
2023-01-29T06:54:08.700Z,1.17
2023-01-29T06:56:36.769Z,0.90
2023-01-29T06:59:04.808Z,0.93
2023-01-29T07:01:36.334Z,1.20
2023-01-29T07:04:06.308Z,0.90
2023-01-29T07:06:34.523Z,1.13
2023-01-29T07:09:02.612Z,0.82
2023-01-29T07:11:30.552Z,1.00
2023-01-29T07:13:58.573Z,0.75
2023-01-29T07:16:27.172Z,0.88
2023-01-29T07:18:55.210Z,0.80
2023-01-29T07:21:24.681Z,0.90
2023-01-29T07:23:52.607Z,0.90
2023-01-29T07:26:20.770Z,0.90
2023-01-29T07:28:48.808Z,0.75
2023-01-29T07:31:16.984Z,0.93
2023-01-29T07:33:45.415Z,1.00
2023-01-29T07:36:14.438Z,0.90
2023-01-29T07:38:43.770Z,1.02
2023-01-29T07:41:12.826Z,1.05
2023-01-29T07:43:40.881Z,1.17
2023-01-29T07:46:09.096Z,0.98
2023-01-29T07:48:37.331Z,1.23
2023-01-29T07:51:05.467Z,1.00
2023-01-29T07:53:33.424Z,1.00
2023-01-29T07:56:03.602Z,1.10
2023-01-29T07:58:31.549Z,0.90
2023-01-29T08:00:59.524Z,1.00
2023-01-29T08:03:27.480Z,1.00
2023-01-29T08:05:55.404Z,1.20
2023-01-29T08:08:23.419Z,1.10
2023-01-29T08:10:51.358Z,1.08
2023-01-29T08:13:20.681Z,0.90
2023-01-29T08:15:48.855Z,1.10
2023-01-29T08:18:16.775Z,0.93
2023-01-29T08:20:44.776Z,0.90
2023-01-29T08:23:15.603Z,1.05
2023-01-29T08:25:43.678Z,1.02
2023-01-29T08:28:12.393Z,1.13
2023-01-29T08:30:44.097Z,1.10
2023-01-29T08:33:12.193Z,1.02
2023-01-29T08:35:41.249Z,1.08
2023-01-29T08:38:10.566Z,0.93
2023-01-29T08:40:38.796Z,0.80
2023-01-29T08:43:09.618Z,0.93
2023-01-29T08:45:40.403Z,0.90
2023-01-29T08:48:10.557Z,0.85
2023-01-29T08:50:38.856Z,0.90
2023-01-29T08:53:08.989Z,1.02
2023-01-29T08:55:38.223Z,0.98
2023-01-29T08:58:06.399Z,1.25
2023-01-29T09:00:35.221Z,0.98
2023-01-29T09:03:03.837Z,0.95
2023-01-29T09:05:33.678Z,0.75
2023-01-29T09:08:01.727Z,0.90
2023-01-29T09:10:29.765Z,1.10
2023-01-29T09:12:57.747Z,1.23
2023-01-29T09:15:26.021Z,0.90
2023-01-29T09:17:54.042Z,0.77
2023-01-29T09:20:22.356Z,0.80
2023-01-29T09:22:53.704Z,1.20
2023-01-29T09:25:21.738Z,0.80
2023-01-29T09:27:49.644Z,0.90
2023-01-29T09:30:18.675Z,0.75
2023-01-29T09:32:54.799Z,1.10
2023-01-29T09:35:23.456Z,1.15
2023-01-29T09:37:53.012Z,1.10
2023-01-29T09:40:27.137Z,0.90
2023-01-29T09:43:02.968Z,0.95
2023-01-29T09:45:31.620Z,1.20
2023-01-29T09:48:01.780Z,0.95
2023-01-29T09:50:33.639Z,1.02
2023-01-29T09:53:12.796Z,0.93
2023-01-29T09:55:47.098Z,1.00
2023-01-29T09:58:20.624Z,0.82
2023-01-29T10:00:58.358Z,0.93
2023-01-29T10:03:49.973Z,0.80
2023-01-29T10:06:27.809Z,0.90
2023-01-29T10:09:22.535Z,1.00
2023-01-29T10:11:59.332Z,0.80
2023-01-29T10:14:38.396Z,1.20
2023-01-29T10:17:22.131Z,1.05
2023-01-29T10:20:03.545Z,1.30
2023-01-29T10:22:56.937Z,1.00
2023-01-29T10:25:26.435Z,0.95
2023-01-29T10:27:58.444Z,1.00
2023-01-29T10:30:34.199Z,1.05
2023-01-29T10:33:05.698Z,1.20
2023-01-29T10:35:36.778Z,0.70
2023-01-29T10:38:24.755Z,0.85
2023-01-29T10:41:08.744Z,0.85
2023-01-29T10:43:42.990Z,0.90
2023-01-29T10:46:23.848Z,0.82
2023-01-29T10:49:02.868Z,1.15
2023-01-29T10:51:53.622Z,0.88
2023-01-29T10:54:50.406Z,1.20
2023-01-29T10:57:32.635Z,1.05
2023-01-29T11:00:13.314Z,0.98
2023-01-29T11:02:46.431Z,0.98
2023-01-29T11:05:22.111Z,0.90
2023-01-29T11:07:57.802Z,1.10
2023-01-29T11:10:26.770Z,0.70
2023-01-29T11:12:57.426Z,1.02
2023-01-29T11:15:29.756Z,0.88
2023-01-29T11:18:10.659Z,0.93
2023-01-29T11:20:38.639Z,0.82
2023-01-29T11:23:07.692Z,1.10
2023-01-29T11:25:36.037Z,0.90
2023-01-29T11:28:07.229Z,0.95
2023-01-29T11:30:38.660Z,0.80
2023-01-29T11:33:19.381Z,0.80
2023-01-29T11:35:47.722Z,0.80
2023-01-29T11:38:22.811Z,0.70
2023-01-29T11:40:51.003Z,0.82
2023-01-29T11:43:31.939Z,1.00
2023-01-29T11:46:02.959Z,1.30
2023-01-29T11:48:42.120Z,1.17
2023-01-29T11:51:12.427Z,0.98
2023-01-29T11:53:43.061Z,0.90
2023-01-29T11:56:24.666Z,1.20
2023-01-29T11:58:57.645Z,0.90
2023-01-29T12:01:33.859Z,1.30
2023-01-29T12:04:02.646Z,1.23
2023-01-29T12:06:36.580Z,1.10
2023-01-29T12:09:11.808Z,1.20
2023-01-29T12:11:39.865Z,1.20
2023-01-29T12:14:30.276Z,1.58
2023-01-29T12:17:02.359Z,1.00
2023-01-29T12:19:36.067Z,2.03
2023-01-29T12:22:08.016Z,1.27
2023-01-29T12:24:42.846Z,1.55
2023-01-29T12:27:20.664Z,2.10
2023-01-29T12:29:57.713Z,1.52
2023-01-29T12:32:33.717Z,1.42
2023-01-29T12:35:07.313Z,1.40
2023-01-29T12:37:41.484Z,1.83
2023-01-29T12:40:15.273Z,1.48
2023-01-29T12:42:47.386Z,1.88
2023-01-29T12:45:20.510Z,1.77
2023-01-29T12:47:53.119Z,1.75
2023-01-29T12:50:25.440Z,1.52
2023-01-29T12:52:57.593Z,1.92
2023-01-29T12:55:29.123Z,1.73
2023-01-29T12:57:59.761Z,1.60
2023-01-29T13:00:33.469Z,1.92
2023-01-29T13:03:09.854Z,1.52
2023-01-29T13:05:42.496Z,1.92
2023-01-29T13:08:15.675Z,1.50
2023-01-29T13:10:48.052Z,1.60
2023-01-29T13:13:20.457Z,1.58
2023-01-29T13:15:50.146Z,1.90
2023-01-29T13:18:41.309Z,3.45
2023-01-29T13:21:14.954Z,3.10
2023-01-29T13:23:47.077Z,2.80
2023-01-29T13:26:19.375Z,2.08
2023-01-29T13:28:48.301Z,2.28
2023-01-29T13:31:30.150Z,1.73
2023-01-29T13:34:09.803Z,1.40
2023-01-29T13:36:42.885Z,1.95
2023-01-29T13:39:23.791Z,1.73
2023-01-29T13:41:53.413Z,1.45
2023-01-29T13:44:25.517Z,1.40
2023-01-29T13:46:59.212Z,1.38
2023-01-29T13:49:31.968Z,1.38
2023-01-29T13:52:15.659Z,1.25
2023-01-29T13:54:53.536Z,1.67
2023-01-29T13:57:49.509Z,1.20
2023-01-29T14:00:50.755Z,1.40
2023-01-29T14:04:05.937Z,1.30
2023-01-29T14:06:44.080Z,1.08
2023-01-29T14:09:35.015Z,1.40
2023-01-29T14:12:03.655Z,1.40
2023-01-29T14:15:02.572Z,1.45
2023-01-29T14:17:31.073Z,1.25
2023-01-29T14:20:04.410Z,1.63
2023-01-29T14:22:34.717Z,1.00
2023-01-29T14:25:06.036Z,0.95
2023-01-29T14:27:35.740Z,1.42
2023-01-29T14:30:09.711Z,1.00
2023-01-29T14:32:40.802Z,1.42
2023-01-29T14:35:21.078Z,1.23
2023-01-29T14:37:52.014Z,1.13
2023-01-29T14:40:24.951Z,1.10
2023-01-29T14:42:59.520Z,1.20
2023-01-29T14:45:29.651Z,1.08
2023-01-29T14:48:34.378Z,1.02
2023-01-29T14:51:11.395Z,0.98
2023-01-29T14:53:53.263Z,1.00
2023-01-29T14:56:29.087Z,1.00
2023-01-29T14:59:05.859Z,1.00
2023-01-29T15:01:38.704Z,2.00
2023-01-29T15:04:15.645Z,1.00
2023-01-29T15:06:47.605Z,1.30
2023-01-29T15:11:55.368Z,1.90
2023-01-29T15:14:33.452Z,1.27
2023-01-29T15:17:18.793Z,1.52
2023-01-29T15:19:49.396Z,1.30
2023-01-29T15:22:20.408Z,1.08
2023-01-29T15:25:03.282Z,1.10
2023-01-29T15:27:32.140Z,1.30
2023-01-29T15:30:02.987Z,1.40
2023-01-29T15:32:34.272Z,0.98
2023-01-29T15:35:08.801Z,1.33
2023-01-29T15:37:38.464Z,1.48
2023-01-29T15:40:15.644Z,1.30
2023-01-29T15:42:46.711Z,1.80
2023-01-29T15:45:27.385Z,1.60
2023-01-29T15:47:58.685Z,1.42
2023-01-29T15:50:26.821Z,1.35
2023-01-29T15:52:59.513Z,1.80
2023-01-29T15:55:28.839Z,1.25
2023-01-29T15:57:57.587Z,1.45
2023-01-29T16:00:28.570Z,1.85
2023-01-29T16:02:57.374Z,1.40
2023-01-29T16:05:29.897Z,1.30
2023-01-29T16:08:00.828Z,1.65
2023-01-29T16:10:31.452Z,1.40
2023-01-29T16:13:00.417Z,1.60
2023-01-29T16:15:34.543Z,1.30
2023-01-29T16:18:05.541Z,1.27
2023-01-29T16:20:39.686Z,1.52
2023-01-29T16:23:18.598Z,1.58
2023-01-29T16:25:47.097Z,1.50
2023-01-29T16:28:15.138Z,1.20
2023-01-29T16:30:43.234Z,1.30
2023-01-29T16:33:17.081Z,1.38
2023-01-29T16:35:51.953Z,1.15
2023-01-29T16:38:28.371Z,1.35
2023-01-29T16:41:16.324Z,1.30
2023-01-29T16:43:50.105Z,1.35
2023-01-29T16:46:26.113Z,1.10
2023-01-29T16:48:55.210Z,1.30
2023-01-29T16:51:27.031Z,1.35
2023-01-29T16:54:02.073Z,1.23
2023-01-29T16:56:34.030Z,1.23
2023-01-29T16:59:05.576Z,1.48
2023-01-29T17:01:36.148Z,1.20
2023-01-29T17:04:12.333Z,1.45
2023-01-29T17:06:43.940Z,1.27
2023-01-29T17:09:22.491Z,1.15
2023-01-29T17:11:56.719Z,1.00
2023-01-29T17:14:25.867Z,1.70
2023-01-29T17:16:56.358Z,1.60
2023-01-29T17:19:25.853Z,1.48
2023-01-29T17:21:54.324Z,1.35
2023-01-29T17:24:23.767Z,1.48
2023-01-29T17:26:51.984Z,1.40
2023-01-29T17:29:24.384Z,1.40
2023-01-29T17:31:52.744Z,1.50
2023-01-29T17:34:20.706Z,1.23
2023-01-29T17:36:48.938Z,1.10
2023-01-29T17:39:20.337Z,1.50
2023-01-29T17:41:52.210Z,1.15
2023-01-29T17:44:20.614Z,1.10
2023-01-29T17:46:49.458Z,1.23
2023-01-29T17:49:24.888Z,0.95
2023-01-29T17:51:53.610Z,1.10
2023-01-29T17:54:22.280Z,1.35
2023-01-29T17:56:52.317Z,1.00
2023-01-29T17:59:22.626Z,1.48
2023-01-29T18:01:51.147Z,1.40
2023-01-29T18:04:19.589Z,0.90
2023-01-29T18:06:50.109Z,1.02
2023-01-29T18:09:20.462Z,1.38
2023-01-29T18:11:49.319Z,1.20
2023-01-29T18:14:18.679Z,1.23
2023-01-29T18:16:47.305Z,1.30
2023-01-29T18:19:19.898Z,1.27
2023-01-29T18:21:48.426Z,1.45
2023-01-29T18:24:16.566Z,1.17
2023-01-29T18:26:44.786Z,1.13
2023-01-29T18:29:12.924Z,1.00
2023-01-29T18:31:42.328Z,1.00
2023-01-29T18:34:10.322Z,1.10
2023-01-29T18:36:38.431Z,1.33
2023-01-29T18:39:06.464Z,1.20
2023-01-29T18:41:35.050Z,1.40
2023-01-29T18:44:03.107Z,1.33
2023-01-29T18:46:31.085Z,1.23
2023-01-29T18:49:00.475Z,1.30
2023-01-29T18:51:28.446Z,1.20
2023-01-29T18:53:56.466Z,1.08
2023-01-29T18:56:25.345Z,1.13
2023-01-29T18:58:56.298Z,0.77
2023-01-29T19:01:25.062Z,1.00
2023-01-29T19:03:53.964Z,1.08
2023-01-29T19:06:23.407Z,1.38
2023-01-29T19:08:51.536Z,1.10
2023-01-29T19:11:19.605Z,1.17
2023-01-29T19:13:48.014Z,0.70
2023-01-29T19:16:15.941Z,0.90
2023-01-29T19:18:43.931Z,1.25
2023-01-29T19:21:14.020Z,1.50
2023-01-29T19:23:44.899Z,1.00
2023-01-29T19:26:13.510Z,0.80
2023-01-29T19:28:41.854Z,0.90
2023-01-29T19:31:10.829Z,0.80
2023-01-29T19:33:39.205Z,0.82
2023-01-29T19:36:07.868Z,1.00
2023-01-29T19:38:38.579Z,1.20
2023-01-29T19:41:08.076Z,1.23
2023-01-29T19:43:38.189Z,1.05
2023-01-29T19:46:07.434Z,1.60
2023-01-29T19:48:35.518Z,1.10
2023-01-29T19:51:06.881Z,0.95
2023-01-29T19:53:35.021Z,0.80
2023-01-29T19:56:04.572Z,1.10
2023-01-29T19:58:34.414Z,1.33
2023-01-29T20:01:03.842Z,0.95
2023-01-29T20:03:32.061Z,1.30
2023-01-29T20:06:04.228Z,0.80
2023-01-29T20:08:33.205Z,0.93
2023-01-29T20:11:01.444Z,1.00
2023-01-29T20:13:29.784Z,0.70
2023-01-29T20:16:02.907Z,0.82
2023-01-29T20:18:31.521Z,1.33
2023-01-29T20:21:00.194Z,0.80
2023-01-29T20:23:37.678Z,1.17
2023-01-29T20:26:07.565Z,0.90
2023-01-29T20:28:36.156Z,0.95
2023-01-29T20:31:06.760Z,1.00
2023-01-29T20:33:36.986Z,0.93
2023-01-29T20:36:08.379Z,0.60
2023-01-29T20:38:36.594Z,1.13
2023-01-29T20:41:06.425Z,0.85
2023-01-29T20:43:34.725Z,0.75
2023-01-29T20:46:03.970Z,0.90
2023-01-29T20:48:33.977Z,1.20
2023-01-29T20:51:06.636Z,1.10
2023-01-29T20:53:34.906Z,0.90
2023-01-29T20:56:04.436Z,1.20
2023-01-29T20:58:32.862Z,0.75
2023-01-29T21:01:01.252Z,1.23
2023-01-29T21:03:31.026Z,1.40
2023-01-29T21:06:00.287Z,0.82
2023-01-29T21:08:28.245Z,0.90
2023-01-29T21:10:56.275Z,1.17
2023-01-29T21:13:24.454Z,1.00
2023-01-29T21:15:52.483Z,0.93
2023-01-29T21:18:20.591Z,1.17
2023-01-29T21:20:50.824Z,1.70
2023-01-29T21:23:20.441Z,1.00
2023-01-29T21:25:48.430Z,1.20
2023-01-29T21:28:17.166Z,0.90
2023-01-29T21:30:45.356Z,1.20
2023-01-29T21:33:13.414Z,1.13
2023-01-29T21:35:41.421Z,1.10
2023-01-29T21:38:09.451Z,1.13
2023-01-29T21:40:38.877Z,1.17
2023-01-29T21:43:11.794Z,1.20
2023-01-29T21:45:41.012Z,0.80
2023-01-29T21:48:09.596Z,0.90
2023-01-29T21:50:38.241Z,1.30
2023-01-29T21:53:06.507Z,1.20
2023-01-29T21:55:34.730Z,0.68
2023-01-29T21:58:04.350Z,1.08
2023-01-29T22:00:32.629Z,1.10
2023-01-29T22:03:00.617Z,1.17
2023-01-29T22:05:30.226Z,1.40
2023-01-29T22:07:58.338Z,1.00
2023-01-29T22:10:27.700Z,1.42
2023-01-29T22:12:55.951Z,0.90
2023-01-29T22:15:25.315Z,1.00
2023-01-29T22:17:53.254Z,0.88
2023-01-29T22:20:29.669Z,1.30
2023-01-29T22:23:00.388Z,1.13
2023-01-29T22:25:28.832Z,1.02
2023-01-29T22:27:56.930Z,1.27
2023-01-29T22:30:26.482Z,1.17
2023-01-29T22:32:54.509Z,1.25
2023-01-29T22:35:22.619Z,1.02
2023-01-29T22:37:50.604Z,1.20
2023-01-29T22:40:19.186Z,1.20
2023-01-29T22:42:47.412Z,1.25
2023-01-29T22:45:15.565Z,1.27
2023-01-29T22:47:44.871Z,1.25
2023-01-29T22:50:14.074Z,1.20
2023-01-29T22:52:42.798Z,1.38
2023-01-29T22:55:12.536Z,1.33
2023-01-29T22:57:41.118Z,0.90
2023-01-29T23:00:11.992Z,1.10
2023-01-29T23:02:40.079Z,1.15
2023-01-29T23:05:09.904Z,1.10
2023-01-29T23:07:38.217Z,0.95
2023-01-29T23:10:07.563Z,1.00
2023-01-29T23:12:35.493Z,1.23
2023-01-29T23:15:03.619Z,0.75
2023-01-29T23:17:31.566Z,0.82
2023-01-29T23:19:59.558Z,0.70
2023-01-29T23:22:28.982Z,0.57
2023-01-29T23:24:57.031Z,1.17
2023-01-29T23:27:24.077Z,1.27
2023-01-29T23:29:52.022Z,1.20
2023-01-29T23:32:22.002Z,0.88
2023-01-29T23:34:50.075Z,0.80
2023-01-29T23:37:17.995Z,1.08
2023-01-29T23:39:47.370Z,0.80
2023-01-29T23:42:15.271Z,0.70
2023-01-29T23:44:43.411Z,0.98
2023-01-29T23:47:11.616Z,0.80
2023-01-29T23:49:39.610Z,1.17
2023-01-29T23:52:07.798Z,1.00
2023-01-29T23:54:35.872Z,0.80
2023-01-29T23:57:05.193Z,0.70
2023-01-29T23:59:33.141Z,0.70
